createdAt,value
2023-08-02T00:00:52.677Z,980.26
2023-08-02T00:01:52.712Z,980.29
2023-08-02T00:02:52.827Z,980.27
2023-08-02T00:04:09.867Z,980.29
2023-08-02T00:04:52.761Z,980.23
2023-08-02T00:05:52.698Z,980.22
2023-08-02T00:06:52.697Z,980.21
2023-08-02T00:07:52.679Z,980.18
2023-08-02T00:08:52.732Z,980.17
2023-08-02T00:09:52.697Z,980.16
2023-08-02T00:10:52.717Z,980.13
2023-08-02T00:11:52.723Z,980.23
2023-08-02T00:12:52.636Z,980.20
2023-08-02T00:13:52.608Z,980.17
2023-08-02T00:14:52.612Z,980.16
2023-08-02T00:15:52.650Z,980.17
2023-08-02T00:16:52.630Z,980.19
2023-08-02T00:17:52.635Z,980.18
2023-08-02T00:18:52.833Z,980.15
2023-08-02T00:19:52.545Z,980.13
2023-08-02T00:20:52.558Z,980.11
2023-08-02T00:21:52.573Z,980.10
2023-08-02T00:22:52.602Z,980.13
2023-08-02T00:23:52.618Z,980.12
2023-08-02T00:24:52.565Z,980.12
2023-08-02T00:25:52.513Z,980.16
2023-08-02T00:26:52.615Z,980.15
2023-08-02T00:27:52.504Z,980.13
2023-08-02T00:28:52.546Z,980.14
2023-08-02T00:29:52.536Z,980.10
2023-08-02T00:30:52.554Z,980.14
2023-08-02T00:31:52.505Z,980.09
2023-08-02T00:32:52.610Z,980.03
2023-08-02T00:33:52.697Z,980.02
2023-08-02T00:34:52.494Z,979.98
2023-08-02T00:35:52.504Z,980.00
2023-08-02T00:36:52.616Z,980.02
2023-08-02T00:37:52.677Z,980.05
2023-08-02T00:38:52.457Z,980.07
2023-08-02T00:39:52.430Z,980.08
2023-08-02T00:40:52.478Z,980.04
2023-08-02T00:41:52.514Z,980.03
2023-08-02T00:42:52.451Z,980.03
2023-08-02T00:43:52.448Z,980.00
2023-08-02T00:44:52.404Z,979.98
2023-08-02T00:45:52.449Z,980.07
2023-08-02T00:46:52.529Z,980.02
2023-08-02T00:47:52.458Z,980.05
2023-08-02T00:48:52.353Z,980.07
2023-08-02T00:49:52.403Z,980.11
2023-08-02T00:50:52.381Z,980.11
2023-08-02T00:51:52.366Z,980.11
2023-08-02T00:52:52.371Z,980.07
2023-08-02T00:53:52.349Z,980.09
2023-08-02T00:54:52.337Z,980.09
2023-08-02T00:55:52.344Z,980.07
2023-08-02T00:56:52.352Z,980.10
2023-08-02T00:57:52.331Z,980.08
2023-08-02T00:58:52.499Z,980.09
2023-08-02T00:59:52.298Z,980.03
2023-08-02T01:00:52.296Z,980.07
2023-08-02T01:01:52.372Z,980.01
2023-08-02T01:02:52.457Z,980.01
2023-08-02T01:03:52.275Z,979.98
2023-08-02T01:04:52.287Z,979.96
2023-08-02T01:05:52.326Z,979.99
2023-08-02T01:06:52.308Z,980.00
2023-08-02T01:07:52.243Z,979.98
2023-08-02T01:08:52.462Z,980.04
2023-08-02T01:09:52.222Z,979.99
2023-08-02T01:10:52.218Z,979.98
2023-08-02T01:11:52.223Z,980.04
2023-08-02T01:12:52.208Z,980.01
2023-08-02T01:13:52.215Z,979.98
2023-08-02T01:14:56.086Z,980.01
2023-08-02T01:15:52.224Z,980.01
2023-08-02T01:16:52.442Z,979.96
2023-08-02T01:17:52.255Z,979.95
2023-08-02T01:18:52.206Z,980.00
2023-08-02T01:19:52.156Z,980.02
2023-08-02T01:20:52.143Z,979.99
2023-08-02T01:21:52.154Z,980.02
2023-08-02T01:22:52.145Z,979.98
2023-08-02T01:23:52.163Z,980.01
2023-08-02T01:24:52.214Z,980.01
2023-08-02T01:25:52.163Z,980.03
2023-08-02T01:26:52.092Z,980.02
2023-08-02T01:27:52.129Z,980.03
2023-08-02T01:28:52.098Z,979.99
2023-08-02T01:29:52.101Z,979.93
2023-08-02T01:30:52.110Z,979.95
2023-08-02T01:31:52.127Z,979.99
2023-08-02T01:32:52.139Z,979.96
2023-08-02T01:33:52.091Z,979.95
2023-08-02T01:34:52.053Z,979.93
2023-08-02T01:35:52.234Z,979.93
2023-08-02T01:36:52.029Z,979.89
2023-08-02T01:37:52.041Z,979.89
2023-08-02T01:38:52.029Z,979.92
2023-08-02T01:39:52.000Z,979.89
2023-08-02T01:40:52.104Z,979.86
2023-08-02T01:41:52.006Z,979.84
2023-08-02T01:42:52.009Z,979.82
2023-08-02T01:43:52.017Z,979.84
2023-08-02T01:44:51.983Z,979.81
2023-08-02T01:45:52.197Z,979.84
2023-08-02T01:46:51.967Z,979.83
2023-08-02T01:47:51.977Z,979.81
2023-08-02T01:48:51.938Z,979.80
2023-08-02T01:49:51.929Z,979.76
2023-08-02T01:50:51.949Z,979.78
2023-08-02T01:51:51.913Z,979.74
2023-08-02T01:52:51.911Z,979.73
2023-08-02T01:53:51.899Z,979.73
2023-08-02T01:54:51.893Z,979.67
2023-08-02T01:55:51.887Z,979.63
2023-08-02T01:56:51.906Z,979.64
2023-08-02T01:57:52.105Z,979.63
2023-08-02T01:58:51.915Z,979.63
2023-08-02T01:59:51.860Z,979.59
2023-08-02T02:00:51.897Z,979.60
2023-08-02T02:01:51.869Z,979.58
2023-08-02T02:02:51.956Z,979.56
2023-08-02T02:03:51.866Z,979.59
2023-08-02T02:04:51.830Z,979.55
2023-08-02T02:05:51.825Z,979.55
2023-08-02T02:06:51.891Z,979.54
2023-08-02T02:07:51.803Z,979.52
2023-08-02T02:08:51.795Z,979.53
2023-08-02T02:09:51.803Z,979.50
2023-08-02T02:10:51.781Z,979.50
2023-08-02T02:11:51.987Z,979.50
2023-08-02T02:12:51.885Z,979.51
2023-08-02T02:13:51.759Z,979.46
2023-08-02T02:14:51.757Z,979.45
2023-08-02T02:15:51.991Z,979.41
2023-08-02T02:16:51.750Z,979.35
2023-08-02T02:17:51.841Z,979.36
2023-08-02T02:18:51.759Z,979.28
2023-08-02T02:19:51.716Z,979.28
2023-08-02T02:20:51.737Z,979.28
2023-08-02T02:21:51.776Z,979.31
2023-08-02T02:22:51.724Z,979.35
2023-08-02T02:23:51.720Z,979.36
2023-08-02T02:24:51.718Z,979.31
2023-08-02T02:25:51.686Z,979.38
2023-08-02T02:26:51.694Z,979.37
2023-08-02T02:27:51.673Z,979.35
2023-08-02T02:28:51.660Z,979.29
2023-08-02T02:29:51.731Z,979.31
2023-08-02T02:30:51.650Z,979.29
2023-08-02T02:31:51.714Z,979.32
2023-08-02T02:32:51.692Z,979.36
2023-08-02T02:33:51.621Z,979.35
2023-08-02T02:34:51.622Z,979.35
2023-08-02T02:35:51.611Z,979.39
2023-08-02T02:36:51.617Z,979.40
2023-08-02T02:37:51.590Z,979.37
2023-08-02T02:38:51.614Z,979.38
2023-08-02T02:39:51.588Z,979.35
2023-08-02T02:40:51.576Z,979.26
2023-08-02T02:41:51.564Z,979.25
2023-08-02T02:42:51.567Z,979.22
2023-08-02T02:43:51.574Z,979.26
2023-08-02T02:44:51.588Z,979.24
2023-08-02T02:45:51.538Z,979.29
2023-08-02T02:46:51.554Z,979.30
2023-08-02T02:47:51.554Z,979.24
2023-08-02T02:48:51.519Z,979.20
2023-08-02T02:49:51.714Z,979.21
2023-08-02T02:50:51.505Z,979.18
2023-08-02T02:51:51.508Z,979.16
2023-08-02T02:52:51.502Z,979.16
2023-08-02T02:53:51.486Z,979.20
2023-08-02T02:54:51.541Z,979.11
2023-08-02T02:55:51.470Z,979.13
2023-08-02T02:56:51.469Z,979.16
2023-08-02T02:57:51.468Z,979.16
2023-08-02T02:58:51.447Z,979.20
2023-08-02T02:59:51.449Z,979.19
2023-08-02T03:00:51.453Z,979.20
2023-08-02T03:01:51.456Z,979.21
2023-08-02T03:02:51.483Z,979.20
2023-08-02T03:03:51.413Z,979.22
2023-08-02T03:04:51.629Z,979.16
2023-08-02T03:05:51.433Z,979.19
2023-08-02T03:06:51.427Z,979.21
2023-08-02T03:07:51.390Z,979.23
2023-08-02T03:08:51.397Z,979.29
2023-08-02T03:09:51.367Z,979.28
2023-08-02T03:10:51.385Z,979.27
2023-08-02T03:11:51.359Z,979.26
2023-08-02T03:12:51.350Z,979.19
2023-08-02T03:13:51.346Z,979.22
2023-08-02T03:14:51.340Z,979.19
2023-08-02T03:15:51.332Z,979.19
2023-08-02T03:16:51.366Z,979.15
2023-08-02T03:17:51.374Z,979.14
2023-08-02T03:18:51.517Z,979.19
2023-08-02T03:19:51.504Z,979.18
2023-08-02T03:20:51.300Z,979.21
2023-08-02T03:21:51.289Z,979.21
2023-08-02T03:22:51.298Z,979.24
2023-08-02T03:23:51.302Z,979.21
2023-08-02T03:24:51.295Z,979.24
2023-08-02T03:25:51.302Z,979.24
2023-08-02T03:26:51.494Z,979.29
2023-08-02T03:27:51.305Z,979.36
2023-08-02T03:28:51.254Z,979.34
2023-08-02T03:29:51.281Z,979.29
2023-08-02T03:30:51.253Z,979.18
2023-08-02T03:31:51.271Z,979.16
2023-08-02T03:32:51.316Z,979.13
2023-08-02T03:33:51.217Z,979.08
2023-08-02T03:34:51.209Z,979.15
2023-08-02T03:35:51.229Z,979.18
2023-08-02T03:36:51.258Z,979.14
2023-08-02T03:37:51.234Z,979.14
2023-08-02T03:38:51.198Z,979.12
2023-08-02T03:39:51.201Z,979.10
2023-08-02T03:40:51.192Z,979.13
2023-08-02T03:41:51.203Z,979.12
2023-08-02T03:42:51.174Z,979.10
2023-08-02T03:43:51.171Z,979.09
2023-08-02T03:44:51.384Z,979.10
2023-08-02T03:45:51.299Z,979.06
2023-08-02T03:46:51.291Z,979.06
2023-08-02T03:47:51.224Z,979.10
2023-08-02T03:48:51.151Z,979.11
2023-08-02T03:49:51.139Z,979.10
2023-08-02T03:50:51.108Z,979.14
2023-08-02T03:51:51.124Z,979.13
2023-08-02T03:52:51.123Z,979.15
2023-08-02T03:53:51.105Z,979.17
2023-08-02T03:54:51.093Z,979.15
2023-08-02T03:55:51.082Z,979.17
2023-08-02T03:56:51.173Z,979.20
2023-08-02T03:57:51.053Z,979.20
2023-08-02T03:58:51.085Z,979.18
2023-08-02T03:59:51.098Z,979.19
2023-08-02T04:00:51.075Z,979.18
2023-08-02T04:01:51.094Z,979.20
2023-08-02T04:02:51.104Z,979.19
2023-08-02T04:03:51.097Z,979.17
2023-08-02T04:04:51.047Z,979.17
2023-08-02T04:05:51.072Z,979.12
2023-08-02T04:06:51.072Z,979.13
2023-08-02T04:07:51.062Z,979.09
2023-08-02T04:08:51.017Z,979.08
2023-08-02T04:09:51.014Z,979.05
2023-08-02T04:10:51.012Z,979.02
2023-08-02T04:11:50.988Z,978.99
2023-08-02T04:12:50.970Z,979.00
2023-08-02T04:13:51.095Z,979.01
2023-08-02T04:14:50.965Z,978.98
2023-08-02T04:15:50.962Z,978.97
2023-08-02T04:16:50.987Z,978.96
2023-08-02T04:17:51.031Z,978.97
2023-08-02T04:18:50.896Z,978.94
2023-08-02T04:19:50.933Z,978.90
2023-08-02T04:20:50.916Z,978.88
2023-08-02T04:21:50.919Z,978.92
2023-08-02T04:22:50.971Z,978.92
2023-08-02T04:23:50.930Z,978.93
2023-08-02T04:24:50.872Z,978.93
2023-08-02T04:25:50.876Z,978.91
2023-08-02T04:26:50.880Z,978.88
2023-08-02T04:27:50.855Z,978.89
2023-08-02T04:28:50.883Z,978.79
2023-08-02T04:29:50.879Z,978.75
2023-08-02T04:30:51.037Z,978.75
2023-08-02T04:31:50.887Z,978.72
2023-08-02T04:32:50.873Z,978.71
2023-08-02T04:33:50.801Z,978.73
2023-08-02T04:34:50.835Z,978.68
2023-08-02T04:35:50.828Z,978.63
2023-08-02T04:36:50.820Z,978.62
2023-08-02T04:37:50.793Z,978.59
2023-08-02T04:38:50.792Z,978.56
2023-08-02T04:39:50.813Z,978.58
2023-08-02T04:40:50.777Z,978.59
2023-08-02T04:41:50.749Z,978.58
2023-08-02T04:42:50.763Z,978.62
2023-08-02T04:43:50.745Z,978.63
2023-08-02T04:44:50.746Z,978.64
2023-08-02T04:45:50.805Z,978.65
2023-08-02T04:46:50.942Z,978.69
2023-08-02T04:47:50.817Z,978.67
2023-08-02T04:48:50.720Z,978.68
2023-08-02T04:49:50.711Z,978.74
2023-08-02T04:50:50.762Z,978.75
2023-08-02T04:51:50.716Z,978.78
2023-08-02T04:52:50.692Z,978.76
2023-08-02T04:53:50.713Z,978.69
2023-08-02T04:54:50.674Z,978.72
2023-08-02T04:55:50.704Z,978.73
2023-08-02T04:56:50.646Z,978.73
2023-08-02T04:57:50.665Z,978.71
2023-08-02T04:58:50.685Z,978.73
2023-08-02T04:59:50.654Z,978.67
2023-08-02T05:00:50.634Z,978.63
2023-08-02T05:01:50.649Z,978.62
2023-08-02T05:02:50.762Z,978.61
2023-08-02T05:03:50.622Z,978.58
2023-08-02T05:04:50.588Z,978.58
2023-08-02T05:05:50.595Z,978.53
2023-08-02T05:06:50.595Z,978.56
2023-08-02T05:07:50.571Z,978.54
2023-08-02T05:08:50.569Z,978.51
2023-08-02T05:09:50.578Z,978.50
2023-08-02T05:10:50.587Z,978.48
2023-08-02T05:11:50.574Z,978.49
2023-08-02T05:12:50.550Z,978.45
2023-08-02T05:13:50.569Z,978.45
2023-08-02T05:14:50.546Z,978.49
2023-08-02T05:15:50.593Z,978.52
2023-08-02T05:16:50.524Z,978.54
2023-08-02T05:17:50.592Z,978.61
2023-08-02T05:18:50.528Z,978.67
2023-08-02T05:19:50.497Z,978.65
2023-08-02T05:20:50.496Z,978.63
2023-08-02T05:21:50.489Z,978.63
2023-08-02T05:22:50.509Z,978.57
2023-08-02T05:23:52.116Z,978.57
2023-08-02T05:24:50.501Z,978.55
2023-08-02T05:25:50.472Z,978.53
2023-08-02T05:26:50.503Z,978.52
2023-08-02T05:27:50.465Z,978.51
2023-08-02T05:28:50.462Z,978.50
2023-08-02T05:29:50.466Z,978.53
2023-08-02T05:30:50.467Z,978.53
2023-08-02T05:31:50.525Z,978.60
2023-08-02T05:32:50.522Z,978.62
2023-08-02T05:33:50.434Z,978.66
2023-08-02T05:34:50.441Z,978.65
2023-08-02T05:35:50.404Z,978.67
2023-08-02T05:36:50.635Z,978.64
2023-08-02T05:37:50.424Z,978.67
2023-08-02T05:38:50.397Z,978.69
2023-08-02T05:39:50.419Z,978.69
2023-08-02T05:40:50.371Z,978.70
2023-08-02T05:41:50.382Z,978.75
2023-08-02T05:42:50.432Z,978.73
2023-08-02T05:43:50.393Z,978.75
2023-08-02T05:44:50.371Z,978.66
2023-08-02T05:45:50.415Z,978.61
2023-08-02T05:46:50.417Z,978.61
2023-08-02T05:47:50.488Z,978.63
2023-08-02T05:48:50.383Z,978.63
2023-08-02T05:49:50.320Z,978.61
2023-08-02T05:50:50.406Z,978.58
2023-08-02T05:51:50.344Z,978.53
2023-08-02T05:52:50.320Z,978.50
2023-08-02T05:53:50.344Z,978.45
2023-08-02T05:54:50.339Z,978.48
2023-08-02T05:55:50.317Z,978.47
2023-08-02T05:56:50.300Z,978.49
2023-08-02T05:57:50.321Z,978.51
2023-08-02T05:58:50.272Z,978.50
2023-08-02T05:59:50.265Z,978.48
2023-08-02T06:00:50.279Z,978.45
2023-08-02T06:01:50.351Z,978.47
2023-08-02T06:02:50.321Z,978.47
2023-08-02T06:03:50.315Z,978.49
2023-08-02T06:04:50.246Z,978.47
2023-08-02T06:05:50.290Z,978.48
2023-08-02T06:06:50.268Z,978.49
2023-08-02T06:07:50.225Z,978.50
2023-08-02T06:08:50.190Z,978.44
2023-08-02T06:09:50.265Z,978.46
2023-08-02T06:10:50.187Z,978.47
2023-08-02T06:11:50.198Z,978.42
2023-08-02T06:12:50.161Z,978.34
2023-08-02T06:13:50.172Z,978.31
2023-08-02T06:14:50.183Z,978.31
2023-08-02T06:15:50.230Z,978.18
2023-08-02T06:16:50.225Z,978.13
2023-08-02T06:17:50.212Z,978.10
2023-08-02T06:18:50.144Z,978.08
2023-08-02T06:19:50.321Z,978.06
2023-08-02T06:20:50.129Z,978.03
2023-08-02T06:21:50.104Z,978.01
2023-08-02T06:22:50.144Z,978.03
2023-08-02T06:23:50.111Z,978.07
2023-08-02T06:24:50.087Z,978.09
2023-08-02T06:25:50.146Z,978.05
2023-08-02T06:26:50.119Z,978.02
2023-08-02T06:27:50.124Z,977.99
2023-08-02T06:28:50.158Z,977.99
2023-08-02T06:29:50.113Z,978.02
2023-08-02T06:30:50.152Z,978.02
2023-08-02T06:31:50.083Z,978.03
2023-08-02T06:32:50.129Z,978.03
2023-08-02T06:33:50.099Z,978.02
2023-08-02T06:34:50.091Z,978.00
2023-08-02T06:35:50.073Z,978.01
2023-08-02T06:36:50.027Z,978.03
2023-08-02T06:37:50.108Z,978.00
2023-08-02T06:38:50.046Z,978.00
2023-08-02T06:39:50.009Z,978.03
2023-08-02T06:40:50.028Z,978.02
2023-08-02T06:41:50.039Z,978.02
2023-08-02T06:42:50.033Z,978.03
2023-08-02T06:43:50.218Z,978.03
2023-08-02T06:44:50.025Z,977.98
2023-08-02T06:45:49.992Z,977.95
2023-08-02T06:46:50.160Z,977.87
2023-08-02T06:47:49.975Z,977.86
2023-08-02T06:48:50.005Z,977.86
2023-08-02T06:49:50.006Z,977.91
2023-08-02T06:50:49.941Z,977.92
2023-08-02T06:51:49.933Z,977.86
2023-08-02T06:52:49.944Z,977.91
2023-08-02T06:53:49.932Z,977.95
2023-08-02T06:54:49.965Z,977.99
2023-08-02T06:55:49.966Z,977.93
2023-08-02T06:56:49.923Z,977.91
2023-08-02T06:57:49.909Z,977.89
2023-08-02T06:58:50.022Z,977.91
2023-08-02T06:59:49.923Z,977.88
2023-08-02T07:00:49.928Z,977.86
2023-08-02T07:01:49.907Z,977.87
2023-08-02T07:02:49.907Z,977.83
2023-08-02T07:03:49.906Z,977.82
2023-08-02T07:04:49.906Z,977.77
2023-08-02T07:05:49.896Z,977.72
2023-08-02T07:06:49.888Z,977.71
2023-08-02T07:07:49.876Z,977.72
2023-08-02T07:08:49.869Z,977.74
2023-08-02T07:09:49.901Z,977.67
2023-08-02T07:10:49.922Z,977.62
2023-08-02T07:11:50.185Z,977.55
2023-08-02T07:12:49.865Z,977.58
2023-08-02T07:13:49.829Z,977.62
2023-08-02T07:14:49.833Z,977.57
2023-08-02T07:15:49.826Z,977.59
2023-08-02T07:16:49.854Z,977.56
2023-08-02T07:17:52.004Z,977.62
2023-08-02T07:18:49.791Z,977.65
2023-08-02T07:19:49.814Z,977.63
2023-08-02T07:20:49.793Z,977.59
2023-08-02T07:21:49.807Z,977.55
2023-08-02T07:22:49.778Z,977.56
2023-08-02T07:23:49.765Z,977.58
2023-08-02T07:24:49.814Z,977.59
2023-08-02T07:25:49.750Z,977.60
2023-08-02T07:26:49.792Z,977.61
2023-08-02T07:27:49.767Z,977.59
2023-08-02T07:28:49.722Z,977.63
2023-08-02T07:29:49.740Z,977.62
2023-08-02T07:30:49.784Z,977.57
2023-08-02T07:31:49.732Z,977.56
2023-08-02T07:32:49.776Z,977.56
2023-08-02T07:33:49.779Z,977.54
2023-08-02T07:34:49.703Z,977.50
2023-08-02T07:35:49.673Z,977.51
2023-08-02T07:36:49.723Z,977.54
2023-08-02T07:37:49.703Z,977.57
2023-08-02T07:38:49.717Z,977.60
2023-08-02T07:39:49.661Z,977.65
2023-08-02T07:40:49.699Z,977.67
2023-08-02T07:41:49.672Z,977.71
2023-08-02T07:42:49.680Z,977.65
2023-08-02T07:43:49.661Z,977.68
2023-08-02T07:44:49.652Z,977.72
2023-08-02T07:45:49.643Z,977.67
2023-08-02T07:46:49.806Z,977.63
2023-08-02T07:47:49.678Z,977.65
2023-08-02T07:48:49.634Z,977.66
2023-08-02T07:49:49.609Z,977.66
2023-08-02T07:50:49.619Z,977.68
2023-08-02T07:51:49.840Z,977.67
2023-08-02T07:52:49.587Z,977.70
2023-08-02T07:53:49.594Z,977.70
2023-08-02T07:54:56.422Z,977.75
2023-08-02T07:55:49.592Z,977.68
2023-08-02T07:56:49.788Z,977.65
2023-08-02T07:57:50.204Z,977.59
2023-08-02T07:58:49.633Z,977.51
2023-08-02T07:59:49.553Z,977.54
2023-08-02T08:00:49.660Z,977.46
2023-08-02T08:01:49.621Z,977.43
2023-08-02T08:02:49.542Z,977.40
2023-08-02T08:03:49.639Z,977.23
2023-08-02T08:04:49.535Z,977.25
2023-08-02T08:05:49.734Z,977.26
2023-08-02T08:06:49.662Z,977.17
2023-08-02T08:07:49.538Z,977.20
2023-08-02T08:08:49.536Z,977.12
2023-08-02T08:09:49.926Z,977.15
2023-08-02T08:10:49.520Z,977.17
2023-08-02T08:11:49.742Z,977.16
2023-08-02T08:12:49.530Z,977.13
2023-08-02T08:13:49.509Z,977.11
2023-08-02T08:14:49.714Z,977.19
2023-08-02T08:15:49.508Z,977.16
2023-08-02T08:16:49.535Z,977.16
2023-08-02T08:17:50.953Z,977.08
2023-08-02T08:18:51.784Z,977.11
2023-08-02T08:19:49.482Z,977.10
2023-08-02T08:20:49.440Z,977.12
2023-08-02T08:21:49.469Z,977.05
2023-08-02T08:22:49.446Z,977.00
2023-08-02T08:23:49.620Z,977.02
2023-08-02T08:24:49.444Z,976.97
2023-08-02T08:25:49.454Z,976.94
2023-08-02T08:26:49.420Z,977.00
2023-08-02T08:27:49.420Z,976.99
2023-08-02T08:28:49.448Z,976.96
2023-08-02T08:29:49.445Z,977.01
2023-08-02T08:30:49.416Z,977.09
2023-08-02T08:31:49.655Z,977.02
2023-08-02T08:32:49.467Z,977.12
2023-08-02T08:33:49.626Z,977.02
2023-08-02T08:34:49.405Z,977.00
2023-08-02T08:35:49.385Z,976.98
2023-08-02T08:36:49.374Z,977.00
2023-08-02T08:37:49.394Z,976.96
2023-08-02T08:38:51.214Z,976.95
2023-08-02T08:39:56.603Z,976.99
2023-08-02T08:40:49.375Z,977.01
2023-08-02T08:41:49.376Z,977.04
2023-08-02T08:42:49.360Z,977.08
2023-08-02T08:43:49.362Z,977.08
2023-08-02T08:44:49.326Z,977.10
2023-08-02T08:45:49.372Z,977.09
2023-08-02T08:46:49.334Z,977.10
2023-08-02T08:47:49.370Z,977.08
2023-08-02T08:48:49.381Z,977.11
2023-08-02T08:49:49.505Z,977.10
2023-08-02T08:50:49.292Z,977.06
2023-08-02T08:51:49.281Z,976.95
2023-08-02T08:52:49.288Z,976.96
2023-08-02T08:53:49.283Z,976.92
2023-08-02T08:54:49.270Z,976.89
2023-08-02T08:55:49.298Z,976.82
2023-08-02T08:56:49.379Z,976.84
2023-08-02T08:57:49.273Z,976.78
2023-08-02T08:58:49.265Z,976.83
2023-08-02T08:59:49.286Z,976.81
2023-08-02T09:00:49.329Z,976.77
2023-08-02T09:01:49.369Z,976.77
2023-08-02T09:02:49.380Z,976.73
2023-08-02T09:03:49.306Z,976.76
2023-08-02T09:04:49.427Z,976.74
2023-08-02T09:05:49.286Z,976.77
2023-08-02T09:06:49.319Z,976.80
2023-08-02T09:07:49.213Z,976.79
2023-08-02T09:08:49.288Z,976.75
2023-08-02T09:09:49.201Z,976.79
2023-08-02T09:10:49.222Z,976.74
2023-08-02T09:11:49.190Z,976.77
2023-08-02T09:12:49.202Z,976.73
2023-08-02T09:13:49.403Z,976.72
2023-08-02T09:14:49.191Z,976.70
2023-08-02T09:15:51.705Z,976.71
2023-08-02T09:16:49.177Z,976.67
2023-08-02T09:17:49.279Z,976.64
2023-08-02T09:18:49.208Z,976.63
2023-08-02T09:19:49.146Z,976.65
2023-08-02T09:20:49.375Z,976.65
2023-08-02T09:21:49.184Z,976.56
2023-08-02T09:22:49.175Z,976.60
2023-08-02T09:23:49.196Z,976.61
2023-08-02T09:24:49.145Z,976.62
2023-08-02T09:25:49.130Z,976.60
2023-08-02T09:26:49.149Z,976.52
2023-08-02T09:27:49.102Z,976.54
2023-08-02T09:28:49.124Z,976.51
2023-08-02T09:29:49.121Z,976.54
2023-08-02T09:30:49.144Z,976.51
2023-08-02T09:31:49.240Z,976.46
2023-08-02T09:32:49.205Z,976.48
2023-08-02T09:33:49.101Z,976.43
2023-08-02T09:34:49.094Z,976.41
2023-08-02T09:35:49.255Z,976.42
2023-08-02T09:36:49.204Z,976.39
2023-08-02T09:37:49.065Z,976.32
2023-08-02T09:38:49.078Z,976.27
2023-08-02T09:39:49.148Z,976.29
2023-08-02T09:41:58.886Z,976.22
2023-08-02T09:42:49.053Z,976.27
2023-08-02T09:43:49.051Z,976.24
2023-08-02T09:44:49.018Z,976.28
2023-08-02T09:45:49.047Z,976.21
2023-08-02T09:46:49.007Z,976.24
2023-08-02T09:47:49.033Z,976.27
2023-08-02T09:48:49.020Z,976.20
2023-08-02T09:49:49.039Z,976.23
2023-08-02T09:50:48.979Z,976.19
2023-08-02T09:51:49.058Z,976.16
2023-08-02T09:52:49.008Z,976.15
2023-08-02T09:53:48.979Z,976.07
2023-08-02T09:54:49.068Z,976.10
2023-08-02T09:55:48.980Z,976.08
2023-08-02T09:56:48.981Z,975.99
2023-08-02T09:57:48.948Z,975.97
2023-08-02T09:58:48.938Z,975.95
2023-08-02T09:59:48.914Z,975.95
2023-08-02T10:00:48.916Z,975.93
2023-08-02T10:01:49.152Z,975.92
2023-08-02T10:02:48.937Z,975.97
2023-08-02T10:03:49.103Z,975.92
2023-08-02T10:04:48.918Z,975.91
2023-08-02T10:05:48.888Z,975.94
2023-08-02T10:06:49.167Z,975.90
2023-08-02T10:07:48.888Z,975.87
2023-08-02T10:08:48.945Z,975.90
2023-08-02T10:09:48.863Z,975.91
2023-08-02T10:10:48.853Z,975.83
2023-08-02T10:11:48.863Z,975.79
2023-08-02T10:12:48.839Z,975.78
2023-08-02T10:13:48.844Z,975.85
2023-08-02T10:14:48.843Z,975.78
2023-08-02T10:15:48.928Z,975.75
2023-08-02T10:16:48.834Z,975.75
2023-08-02T10:17:48.888Z,975.75
2023-08-02T10:18:48.813Z,975.69
2023-08-02T10:19:48.831Z,975.66
2023-08-02T10:20:48.818Z,975.60
2023-08-02T10:21:48.833Z,975.55
2023-08-02T10:22:49.000Z,975.55
2023-08-02T10:23:48.789Z,975.54
2023-08-02T10:24:48.827Z,975.55
2023-08-02T10:25:48.770Z,975.49
2023-08-02T10:26:48.765Z,975.53
2023-08-02T10:27:48.761Z,975.48
2023-08-02T10:28:48.810Z,975.50
2023-08-02T10:29:48.962Z,975.43
2023-08-02T10:30:48.767Z,975.45
2023-08-02T10:31:48.791Z,975.46
2023-08-02T10:32:48.848Z,975.50
2023-08-02T10:33:48.841Z,975.42
2023-08-02T10:34:48.753Z,975.44
2023-08-02T10:35:48.714Z,975.44
2023-08-02T10:36:48.718Z,975.33
2023-08-02T10:37:48.717Z,975.41
2023-08-02T10:38:48.695Z,975.36
2023-08-02T10:39:48.853Z,975.42
2023-08-02T10:40:48.718Z,975.33
2023-08-02T10:41:48.682Z,975.28
2023-08-02T10:42:48.680Z,975.22
2023-08-02T10:43:48.670Z,975.27
2023-08-02T10:44:48.666Z,975.21
2023-08-02T10:45:48.686Z,975.21
2023-08-02T10:46:48.886Z,975.17
2023-08-02T10:47:48.708Z,975.22
2023-08-02T10:48:48.658Z,975.10
2023-08-02T10:49:48.636Z,975.14
2023-08-02T10:50:48.652Z,975.15
2023-08-02T10:51:48.669Z,975.11
2023-08-02T10:52:48.640Z,975.08
2023-08-02T10:53:48.617Z,975.00
2023-08-02T10:54:48.823Z,974.98
2023-08-02T10:55:48.612Z,974.98
2023-08-02T10:56:48.827Z,974.95
2023-08-02T10:57:48.597Z,974.97
2023-08-02T10:58:48.676Z,974.93
2023-08-02T10:59:48.592Z,974.98
2023-08-02T11:00:48.630Z,974.89
2023-08-02T11:01:48.627Z,974.86
2023-08-02T11:02:48.679Z,974.96
2023-08-02T11:03:48.606Z,974.87
2023-08-02T11:04:48.750Z,974.85
2023-08-02T11:05:48.605Z,974.84
2023-08-02T11:06:48.648Z,974.85
2023-08-02T11:07:48.571Z,974.80
2023-08-02T11:08:48.589Z,974.81
2023-08-02T11:09:48.633Z,974.68
2023-08-02T11:10:48.573Z,974.69
2023-08-02T11:11:48.564Z,974.69
2023-08-02T11:12:48.597Z,974.58
2023-08-02T11:13:48.566Z,974.57
2023-08-02T11:14:48.832Z,974.57
2023-08-02T11:15:48.625Z,974.57
2023-08-02T11:17:54.499Z,974.51
2023-08-02T11:18:48.583Z,974.51
2023-08-02T11:20:48.570Z,974.42
2023-08-02T11:21:48.507Z,974.50
2023-08-02T11:22:48.491Z,974.38
2023-08-02T11:24:48.471Z,974.42
2023-08-02T11:28:48.533Z,974.38
2023-08-02T11:29:48.482Z,974.36
2023-08-02T11:30:48.535Z,974.32
2023-08-02T11:31:48.828Z,974.32
2023-08-02T11:32:48.501Z,974.25
2023-08-02T11:33:48.433Z,974.14
2023-08-02T11:34:48.457Z,974.11
2023-08-02T11:35:48.401Z,974.03
2023-08-02T11:36:49.076Z,974.06
2023-08-02T11:37:48.441Z,974.00
2023-08-02T11:38:48.431Z,974.01
2023-08-02T11:40:00.724Z,973.93
2023-08-02T11:40:48.396Z,974.02
2023-08-02T11:41:48.384Z,973.98
2023-08-02T11:42:48.388Z,973.95
2023-08-02T11:43:48.389Z,974.07
2023-08-02T11:44:59.024Z,974.07
2023-08-02T11:45:48.374Z,974.08
2023-08-02T11:46:48.443Z,974.08
2023-08-02T11:47:50.913Z,974.06
2023-08-02T11:48:48.349Z,974.06
2023-08-02T11:49:48.350Z,974.05
2023-08-02T11:50:48.379Z,973.99
2023-08-02T11:51:48.320Z,973.84
2023-08-02T11:52:48.560Z,973.84
2023-08-02T11:53:48.521Z,973.77
2023-08-02T11:54:48.338Z,973.72
2023-08-02T11:55:48.376Z,973.78
2023-08-02T11:56:48.365Z,973.88
2023-08-02T11:57:48.303Z,973.78
2023-08-02T11:58:48.310Z,973.83
2023-08-02T11:59:48.298Z,973.81
2023-08-02T12:00:48.328Z,973.84
2023-08-02T12:01:48.338Z,973.87
2023-08-02T12:02:48.293Z,973.84
2023-08-02T12:03:48.309Z,973.79
2023-08-02T12:04:48.256Z,973.72
2023-08-02T12:05:48.306Z,973.65
2023-08-02T12:06:48.346Z,973.63
2023-08-02T12:07:48.255Z,973.60
2023-08-02T12:08:48.287Z,973.63
2023-08-02T12:09:48.293Z,973.59
2023-08-02T12:10:48.656Z,973.62
2023-08-02T12:11:48.246Z,973.54
2023-08-02T12:12:48.261Z,973.59
2023-08-02T12:13:48.291Z,973.56
2023-08-02T12:14:48.228Z,973.48
2023-08-02T12:15:48.245Z,973.51
2023-08-02T12:16:48.486Z,973.52
2023-08-02T12:17:48.270Z,973.47
2023-08-02T12:18:48.218Z,973.53
2023-08-02T12:19:48.424Z,973.57
2023-08-02T12:20:48.226Z,973.61
2023-08-02T12:21:48.188Z,973.64
2023-08-02T12:22:48.182Z,973.66
2023-08-02T12:23:48.227Z,973.57
2023-08-02T12:24:48.158Z,973.56
2023-08-02T12:25:48.278Z,973.55
2023-08-02T12:26:48.150Z,973.50
2023-08-02T12:27:48.144Z,973.50
2023-08-02T12:28:48.139Z,973.49
2023-08-02T12:29:48.170Z,973.48
2023-08-02T12:30:48.252Z,973.42
2023-08-02T12:31:48.300Z,973.33
2023-08-02T12:32:48.195Z,973.25
2023-08-02T12:33:48.118Z,973.19
2023-08-02T12:34:51.839Z,973.21
2023-08-02T12:35:48.122Z,973.25